createdAt,value
2022-11-28T00:01:20.592Z,7.23
2022-11-28T00:03:48.328Z,7.19
2022-11-28T00:06:15.819Z,7.22
2022-11-28T00:08:43.310Z,7.20
2022-11-28T00:11:12.508Z,7.20
2022-11-28T00:13:50.345Z,7.17
2022-11-28T00:16:23.407Z,7.16
2022-11-28T00:18:51.982Z,7.13
2022-11-28T00:21:20.173Z,7.11
2022-11-28T00:23:48.794Z,7.11
2022-11-28T00:26:18.151Z,7.09
2022-11-28T00:28:45.274Z,7.09
2022-11-28T00:31:17.734Z,7.06
2022-11-28T00:33:44.744Z,7.06
2022-11-28T00:36:12.434Z,7.05
2022-11-28T00:38:40.100Z,7.03
2022-11-28T00:41:10.212Z,7.04
2022-11-28T00:43:37.629Z,7.04
2022-11-28T00:46:04.837Z,7.04
2022-11-28T00:48:33.544Z,7.05
2022-11-28T00:51:08.094Z,7.02
2022-11-28T00:53:35.292Z,7.03
2022-11-28T00:56:05.892Z,7.01
2022-11-28T00:58:34.701Z,6.99
2022-11-28T01:01:08.523Z,6.97
2022-11-28T01:03:35.700Z,6.93
2022-11-28T01:06:02.977Z,6.89
2022-11-28T01:08:29.951Z,6.89
2022-11-28T01:10:57.212Z,6.88
2022-11-28T01:13:24.310Z,6.87
2022-11-28T01:15:51.301Z,6.88
2022-11-28T01:18:18.341Z,6.84
2022-11-28T01:20:45.271Z,6.84
2022-11-28T01:23:12.300Z,6.80
2022-11-28T01:25:39.399Z,6.75
2022-11-28T01:28:06.393Z,6.73
2022-11-28T01:30:33.831Z,6.68
2022-11-28T01:33:00.858Z,6.65
2022-11-28T01:35:27.964Z,6.61
2022-11-28T01:37:54.930Z,6.58
2022-11-28T01:40:22.097Z,6.52
2022-11-28T01:42:49.053Z,6.47
2022-11-28T01:45:21.661Z,6.40
2022-11-28T01:47:51.573Z,6.35
2022-11-28T01:50:19.291Z,6.24
2022-11-28T01:52:50.739Z,6.18
2022-11-28T01:55:22.532Z,6.08
2022-11-28T01:57:49.902Z,5.93
2022-11-28T02:00:20.131Z,5.89
2022-11-28T02:02:56.392Z,5.79
2022-11-28T02:05:23.592Z,5.68
2022-11-28T02:07:51.849Z,5.57
2022-11-28T02:10:26.781Z,5.46
2022-11-28T02:12:59.721Z,5.38
2022-11-28T02:15:38.390Z,5.30
2022-11-28T02:18:28.590Z,5.24
2022-11-28T02:21:46.733Z,5.17
2022-11-28T02:24:43.121Z,5.10
2022-11-28T02:27:54.911Z,5.11
2022-11-28T02:30:25.952Z,5.07
2022-11-28T02:33:05.962Z,5.05
2022-11-28T02:35:38.971Z,5.04
2022-11-28T02:38:11.951Z,4.94
2022-11-28T02:40:51.212Z,4.93
2022-11-28T02:43:24.291Z,4.86
2022-11-28T02:46:14.575Z,4.88
2022-11-28T02:48:52.099Z,4.85
2022-11-28T02:51:26.778Z,4.81
2022-11-28T02:53:55.471Z,4.81
2022-11-28T02:56:24.987Z,4.83
2022-11-28T02:58:52.510Z,4.86
2022-11-28T03:01:33.995Z,4.84
2022-11-28T03:04:04.530Z,4.86
2022-11-28T03:06:46.581Z,4.87
2022-11-28T03:09:31.529Z,4.78
2022-11-28T03:12:16.760Z,4.74
2022-11-28T03:15:04.649Z,4.66
2022-11-28T03:18:02.571Z,4.63
2022-11-28T03:20:40.277Z,4.57
2022-11-28T03:23:22.301Z,4.48
2022-11-28T03:26:10.951Z,4.40
2022-11-28T03:28:45.381Z,4.36
2022-11-28T03:31:21.456Z,4.27
2022-11-28T03:33:54.229Z,4.25
2022-11-28T03:36:34.659Z,4.19
2022-11-28T03:39:24.450Z,4.17
2022-11-28T03:41:59.514Z,4.12
2022-11-28T03:44:33.641Z,4.13
2022-11-28T03:47:02.871Z,4.10
2022-11-28T03:49:33.930Z,4.07
2022-11-28T03:52:13.245Z,4.04
2022-11-28T03:55:00.931Z,4.05
2022-11-28T03:57:42.459Z,3.91
2022-11-28T04:00:13.170Z,3.84
2022-11-28T04:02:52.989Z,3.84
2022-11-28T04:05:19.990Z,3.86
2022-11-28T04:07:46.881Z,3.82
2022-11-28T04:10:32.911Z,3.84
2022-11-28T04:13:15.770Z,3.86
2022-11-28T04:16:09.601Z,3.80
2022-11-28T04:19:03.048Z,3.75
2022-11-28T04:21:36.070Z,3.78
2022-11-28T04:24:08.892Z,3.77
2022-11-28T04:26:41.546Z,3.78
2022-11-28T04:29:11.410Z,3.76
2022-11-28T04:31:40.731Z,3.76
2022-11-28T04:34:11.825Z,3.65
2022-11-28T04:36:41.406Z,3.67
2022-11-28T04:39:13.328Z,3.72
2022-11-28T04:41:49.402Z,3.63
2022-11-28T04:44:25.980Z,3.59
2022-11-28T04:46:56.668Z,3.60
2022-11-28T04:49:26.688Z,3.60
2022-11-28T04:52:01.200Z,3.60
2022-11-28T04:54:48.680Z,3.58
2022-11-28T04:57:26.880Z,3.58
2022-11-28T04:59:55.400Z,3.58
2022-11-28T05:02:23.287Z,3.52
2022-11-28T05:04:53.442Z,3.50
2022-11-28T05:07:20.587Z,3.50
2022-11-28T05:09:48.040Z,3.56
2022-11-28T05:12:15.121Z,3.58
2022-11-28T05:14:42.463Z,3.53
2022-11-28T05:17:13.110Z,3.54
2022-11-28T05:19:40.364Z,3.54
2022-11-28T05:22:07.526Z,3.60
2022-11-28T05:24:34.522Z,3.56
2022-11-28T05:27:01.544Z,3.59
2022-11-28T05:29:28.900Z,3.62
2022-11-28T05:31:55.966Z,3.62
2022-11-28T05:34:23.111Z,3.59
2022-11-28T05:36:50.227Z,3.56
2022-11-28T05:39:17.233Z,3.60
2022-11-28T05:41:44.285Z,3.61
2022-11-28T05:44:11.244Z,3.62
2022-11-28T05:46:38.271Z,3.62
2022-11-28T05:49:05.332Z,3.69
2022-11-28T05:51:32.349Z,3.72
2022-11-28T05:53:59.473Z,3.69
2022-11-28T05:56:26.485Z,3.78
2022-11-28T05:58:54.528Z,3.79
2022-11-28T06:01:24.784Z,3.77
2022-11-28T06:03:58.270Z,3.77
2022-11-28T06:06:26.565Z,3.79
2022-11-28T06:08:54.181Z,3.83
2022-11-28T06:11:23.607Z,3.84
2022-11-28T06:13:51.044Z,3.82
2022-11-28T06:16:21.270Z,3.84
2022-11-28T06:18:49.157Z,3.83
2022-11-28T06:21:16.470Z,3.74
2022-11-28T06:23:43.585Z,3.80
2022-11-28T06:26:13.174Z,3.84
2022-11-28T06:28:41.765Z,3.82
2022-11-28T06:31:13.723Z,3.84
2022-11-28T06:33:41.534Z,3.83
2022-11-28T06:36:10.045Z,3.83
2022-11-28T06:38:37.508Z,3.85
2022-11-28T06:41:07.388Z,3.88
2022-11-28T06:43:34.964Z,3.87
2022-11-28T06:46:02.079Z,3.87
2022-11-28T06:48:29.146Z,3.90
2022-11-28T06:51:06.007Z,3.95
2022-11-28T06:53:34.226Z,4.00
2022-11-28T06:56:09.905Z,3.99
2022-11-28T06:58:37.547Z,4.06
2022-11-28T07:01:16.696Z,4.06
2022-11-28T07:03:44.895Z,4.12
2022-11-28T07:06:12.902Z,4.11
2022-11-28T07:08:41.069Z,4.20
2022-11-28T07:11:09.164Z,4.28
2022-11-28T07:13:36.369Z,4.34
2022-11-28T07:16:03.934Z,4.39
2022-11-28T07:18:31.065Z,4.47
2022-11-28T07:20:58.209Z,4.53
2022-11-28T07:23:25.553Z,4.62
2022-11-28T07:25:58.347Z,4.68
2022-11-28T07:28:25.832Z,4.68
2022-11-28T07:31:13.570Z,4.80
2022-11-28T07:33:42.258Z,4.76
2022-11-28T07:36:23.844Z,4.73
2022-11-28T07:38:56.746Z,4.83
2022-11-28T07:41:26.825Z,4.83
2022-11-28T07:43:57.184Z,4.86
2022-11-28T07:46:25.755Z,4.88
2022-11-28T07:48:53.681Z,4.86
2022-11-28T07:51:25.664Z,4.86
2022-11-28T07:53:53.304Z,4.82
2022-11-28T07:56:34.996Z,4.80
2022-11-28T07:59:07.547Z,4.83
2022-11-28T08:01:36.339Z,4.86
2022-11-28T08:04:06.574Z,4.80
2022-11-28T08:06:37.865Z,4.87
2022-11-28T08:09:07.188Z,4.86
2022-11-28T08:11:34.907Z,4.89
2022-11-28T08:14:02.573Z,4.88
2022-11-28T08:16:30.517Z,4.86
2022-11-28T08:19:00.124Z,4.83
2022-11-28T08:21:30.491Z,4.91
2022-11-28T08:24:00.351Z,4.87
2022-11-28T08:26:31.043Z,4.91
2022-11-28T08:28:59.906Z,4.97
2022-11-28T08:31:29.568Z,5.03
2022-11-28T08:33:59.064Z,5.06
2022-11-28T08:36:28.336Z,5.12
2022-11-28T08:39:22.395Z,5.09
2022-11-28T08:41:43.503Z,5.15
2022-11-28T08:44:10.616Z,5.14
2022-11-28T08:46:37.804Z,5.23
2022-11-28T08:49:04.969Z,5.29
2022-11-28T08:51:32.343Z,5.38
2022-11-28T08:54:00.192Z,5.36
2022-11-28T08:56:28.270Z,5.28
2022-11-28T08:58:55.893Z,5.44
2022-11-28T09:01:25.904Z,5.43
2022-11-28T09:03:55.295Z,5.44
2022-11-28T09:06:23.538Z,5.58
2022-11-28T09:08:50.887Z,5.69
2022-11-28T09:11:20.665Z,5.67
2022-11-28T09:13:47.805Z,5.69
2022-11-28T09:16:15.728Z,5.77
2022-11-28T09:18:43.412Z,5.80
2022-11-28T09:21:12.616Z,5.95
2022-11-28T09:23:42.024Z,6.02
2022-11-28T09:26:14.804Z,6.10
2022-11-28T09:28:42.406Z,6.25
2022-11-28T09:31:12.713Z,6.36
2022-11-28T09:33:40.487Z,6.53
2022-11-28T09:36:09.864Z,6.63
2022-11-28T09:38:37.386Z,6.91
2022-11-28T09:41:22.545Z,6.90
2022-11-28T09:43:54.749Z,7.00
2022-11-28T09:46:28.843Z,7.20
2022-11-28T09:49:01.224Z,7.14
2022-11-28T09:51:55.929Z,7.30
2022-11-28T09:54:39.844Z,7.33
2022-11-28T09:57:35.259Z,7.61
2022-11-28T10:00:02.550Z,7.98
2022-11-28T10:03:14.344Z,8.26
2022-11-28T10:06:00.847Z,8.44
2022-11-28T10:08:55.774Z,8.79
2022-11-28T10:11:42.605Z,8.92
2022-11-28T10:14:32.605Z,9.06
2022-11-28T10:17:20.744Z,9.47
2022-11-28T10:20:14.184Z,9.67
2022-11-28T10:22:48.284Z,9.72
2022-11-28T10:25:22.983Z,9.67
2022-11-28T10:27:50.685Z,9.61
2022-11-28T10:30:33.972Z,9.64
2022-11-28T10:33:34.178Z,9.46
2022-11-28T10:36:02.685Z,9.32
2022-11-28T10:38:34.343Z,9.41
2022-11-28T10:41:07.767Z,9.41
2022-11-28T10:43:44.365Z,9.40
2022-11-28T10:46:17.544Z,9.49
2022-11-28T10:49:13.964Z,9.57
2022-11-28T10:52:05.368Z,9.55
2022-11-28T10:54:46.207Z,9.59
2022-11-28T10:57:21.752Z,9.61
2022-11-28T11:00:11.044Z,9.64
2022-11-28T11:02:40.704Z,9.61
2022-11-28T11:05:13.523Z,9.61
2022-11-28T11:07:48.490Z,9.58
2022-11-28T11:10:23.365Z,9.58
2022-11-28T11:12:52.864Z,9.59
2022-11-28T11:15:30.166Z,9.54
2022-11-28T11:17:58.625Z,9.51
2022-11-28T11:20:36.650Z,9.54
2022-11-28T11:23:14.262Z,9.60
2022-11-28T11:25:55.577Z,9.64
2022-11-28T11:28:31.752Z,9.68
2022-11-28T11:31:07.373Z,9.67
2022-11-28T11:33:38.084Z,9.84
2022-11-28T11:36:19.493Z,9.84
2022-11-28T11:38:46.624Z,9.79
2022-11-28T11:41:31.147Z,9.62
2022-11-28T11:44:26.064Z,9.59
2022-11-28T11:46:55.020Z,9.59
2022-11-28T11:49:29.583Z,9.48
2022-11-28T11:51:58.604Z,9.44
2022-11-28T11:54:25.804Z,9.44
2022-11-28T11:57:05.865Z,9.50
2022-11-28T11:59:54.512Z,9.52
2022-11-28T12:13:24.884Z,9.01
2022-11-28T12:16:06.229Z,8.99
2022-11-28T12:18:44.366Z,9.03
2022-11-28T12:21:17.949Z,9.08
2022-11-28T12:23:44.925Z,9.31
2022-11-28T12:26:44.205Z,9.52
2022-11-28T12:29:46.792Z,9.52
2022-11-28T12:32:32.587Z,9.44
2022-11-28T12:35:35.055Z,9.29
2022-11-28T12:38:51.543Z,9.05
2022-11-28T12:41:38.592Z,8.82
2022-11-28T12:44:17.445Z,8.55
2022-11-28T12:47:20.555Z,8.33
2022-11-28T12:50:03.328Z,8.07
2022-11-28T12:52:36.427Z,7.90
2022-11-28T12:55:28.145Z,7.80
2022-11-28T12:58:16.369Z,7.67
2022-11-28T13:01:06.425Z,7.49
2022-11-28T13:03:45.751Z,7.46
2022-11-28T13:06:22.664Z,7.37
2022-11-28T13:09:08.307Z,7.34
2022-11-28T13:11:38.366Z,7.30
2022-11-28T13:14:28.689Z,7.19
2022-11-28T13:16:59.784Z,7.15
2022-11-28T13:19:57.545Z,7.08
2022-11-28T13:22:29.165Z,7.07
2022-11-28T13:25:01.068Z,7.04
2022-11-28T13:28:11.730Z,7.03
2022-11-28T13:30:47.976Z,6.98
2022-11-28T13:33:54.791Z,6.99
2022-11-28T13:39:47.288Z,6.81
2022-11-28T13:42:59.001Z,6.76
2022-11-28T13:45:32.245Z,6.70
2022-11-28T13:48:01.150Z,6.67
2022-11-28T13:50:28.288Z,6.59
2022-11-28T13:53:07.448Z,6.55
2022-11-28T13:55:47.148Z,6.48
2022-11-28T13:58:22.248Z,6.50
2022-11-28T14:01:05.246Z,6.47
2022-11-28T14:03:36.598Z,6.44
2022-11-28T14:06:07.465Z,6.47
2022-11-28T14:08:40.573Z,6.43
2022-11-28T14:11:27.614Z,6.33
2022-11-28T14:14:10.006Z,6.31
2022-11-28T14:16:53.853Z,6.35
2022-11-28T14:19:56.355Z,6.37
2022-11-28T14:22:55.605Z,6.40
2022-11-28T14:25:45.863Z,6.37
2022-11-28T14:28:37.955Z,6.40
2022-11-28T14:31:11.405Z,6.39
2022-11-28T14:33:42.733Z,6.43
2022-11-28T14:36:28.791Z,6.38
2022-11-28T14:39:15.525Z,6.40
2022-11-28T14:42:02.685Z,6.39
2022-11-28T14:44:52.225Z,6.34
2022-11-28T14:47:22.245Z,6.32
2022-11-28T14:50:17.844Z,6.27
2022-11-28T14:52:48.683Z,6.30
2022-11-28T14:55:22.128Z,6.28
2022-11-28T14:58:05.463Z,6.24
2022-11-28T15:00:47.750Z,6.23
2022-11-28T15:03:42.904Z,6.21
2022-11-28T15:06:21.724Z,6.19
2022-11-28T15:09:07.489Z,6.27
2022-11-28T15:12:00.407Z,6.20
2022-11-28T15:14:29.268Z,6.23
2022-11-28T15:17:02.449Z,6.24
2022-11-28T15:20:01.930Z,6.22
2022-11-28T15:22:41.292Z,6.24
2022-11-28T15:25:29.846Z,6.29
2022-11-28T15:28:12.268Z,6.28
2022-11-28T15:30:45.888Z,6.30
2022-11-28T15:33:13.965Z,6.30
2022-11-28T15:35:52.768Z,6.31
2022-11-28T15:38:20.004Z,6.34
2022-11-28T15:40:52.012Z,6.35
2022-11-28T15:43:19.683Z,6.34
2022-11-28T15:46:02.923Z,6.34
2022-11-28T15:48:52.472Z,6.36
2022-11-28T15:51:30.485Z,6.37
2022-11-28T15:53:58.147Z,6.39
2022-11-28T15:56:25.604Z,6.38
2022-11-28T15:58:53.987Z,6.41
2022-11-28T16:01:26.726Z,6.42
2022-11-28T16:04:10.846Z,6.43
2022-11-28T16:06:42.547Z,6.40
2022-11-28T16:09:28.831Z,6.42
2022-11-28T16:11:56.126Z,6.41
2022-11-28T16:14:32.103Z,6.38
2022-11-28T16:17:01.527Z,6.37
2022-11-28T16:19:37.846Z,6.36
2022-11-28T16:22:08.505Z,6.38
2022-11-28T16:24:52.851Z,6.35
2022-11-28T16:27:41.788Z,6.36
2022-11-28T16:30:41.645Z,6.34
2022-11-28T16:33:37.746Z,6.37
2022-11-28T16:36:31.324Z,6.33
2022-11-28T16:39:15.245Z,6.35
2022-11-28T16:41:50.727Z,6.37
2022-11-28T16:44:22.424Z,6.35
2022-11-28T16:46:51.085Z,6.36
2022-11-28T16:49:34.846Z,6.33
2022-11-28T16:52:45.824Z,6.31
2022-11-28T16:55:34.753Z,6.29
2022-11-28T16:58:13.405Z,6.32
2022-11-28T17:00:44.393Z,6.35
2022-11-28T17:03:50.243Z,6.37
2022-11-28T17:06:29.244Z,6.31
2022-11-28T17:08:57.169Z,6.30
2022-11-28T17:11:29.845Z,6.30
2022-11-28T17:13:57.897Z,6.29
2022-11-28T17:16:27.229Z,6.24
2022-11-28T17:18:54.625Z,6.23
2022-11-28T17:21:56.465Z,6.17
2022-11-28T17:24:26.312Z,6.19
2022-11-28T17:26:54.643Z,6.13
2022-11-28T17:29:22.993Z,6.14
2022-11-28T17:31:50.537Z,6.08
2022-11-28T17:34:23.904Z,6.04
2022-11-28T17:36:51.771Z,6.05
2022-11-28T17:39:20.280Z,6.03
2022-11-28T17:41:49.549Z,6.03
2022-11-28T17:44:20.363Z,6.00
2022-11-28T17:46:48.831Z,6.03
2022-11-28T17:49:16.224Z,6.05
2022-11-28T17:51:43.783Z,6.05
2022-11-28T17:54:14.325Z,6.03
2022-11-28T17:56:41.506Z,6.03
2022-11-28T17:59:11.410Z,6.03
2022-11-28T18:01:38.874Z,6.05
2022-11-28T18:04:05.985Z,6.04
2022-11-28T18:06:33.406Z,6.02
2022-11-28T18:09:05.930Z,6.00
2022-11-28T18:11:36.184Z,6.07
2022-11-28T18:14:03.214Z,6.06
2022-11-28T18:16:31.076Z,6.08
2022-11-28T18:18:58.324Z,6.03
2022-11-28T18:21:27.004Z,5.98
2022-11-28T18:23:54.784Z,5.84
2022-11-28T18:26:26.549Z,5.88
2022-11-28T18:28:54.571Z,5.78
2022-11-28T18:31:25.139Z,5.74
2022-11-28T18:33:56.259Z,5.71
2022-11-28T18:36:29.148Z,5.68
2022-11-28T18:39:07.169Z,5.66
2022-11-28T18:41:34.745Z,5.61
2022-11-28T18:44:04.855Z,5.54
2022-11-28T18:46:33.705Z,5.41
2022-11-28T18:49:01.966Z,5.44
2022-11-28T18:51:32.850Z,5.45
2022-11-28T18:54:04.276Z,5.43
2022-11-28T18:56:33.411Z,5.40
2022-11-28T18:59:00.555Z,5.37
2022-11-28T19:01:31.580Z,5.42
2022-11-28T19:04:12.405Z,5.42
2022-11-28T19:06:42.872Z,5.39
2022-11-28T19:09:14.169Z,5.34
2022-11-28T19:11:43.024Z,5.32
2022-11-28T19:14:16.864Z,5.35
2022-11-28T19:16:45.374Z,5.30
2022-11-28T19:19:17.233Z,5.29
2022-11-28T19:21:44.824Z,5.29
2022-11-28T19:24:13.303Z,5.29
2022-11-28T19:26:40.777Z,5.31
2022-11-28T19:29:08.522Z,5.22
2022-11-28T19:31:38.015Z,5.24
2022-11-28T19:34:08.350Z,5.24
2022-11-28T19:36:40.787Z,5.20
2022-11-28T19:39:17.107Z,5.20
2022-11-28T19:41:45.224Z,5.23
2022-11-28T19:44:14.224Z,5.22
2022-11-28T19:46:42.068Z,5.25
2022-11-28T19:49:23.139Z,5.24
2022-11-28T19:51:51.479Z,5.23
2022-11-28T19:54:22.038Z,5.27
2022-11-28T19:56:49.572Z,5.27
2022-11-28T19:59:18.361Z,5.27
2022-11-28T20:01:48.394Z,5.24
2022-11-28T20:04:16.020Z,5.29
2022-11-28T20:06:43.446Z,5.31
2022-11-28T20:09:12.785Z,5.29
2022-11-28T20:11:42.846Z,5.32
2022-11-28T20:14:11.893Z,5.31
2022-11-28T20:16:40.723Z,5.28
2022-11-28T20:19:10.874Z,5.27
2022-11-28T20:21:38.526Z,5.24
2022-11-28T20:24:07.764Z,5.18
2022-11-28T20:26:42.220Z,5.21
2022-11-28T20:29:12.367Z,5.17
2022-11-28T20:31:46.604Z,5.15
2022-11-28T20:34:17.292Z,5.14
2022-11-28T20:36:45.487Z,5.14
2022-11-28T20:39:13.108Z,5.14
2022-11-28T20:41:40.111Z,5.10
2022-11-28T20:44:07.447Z,5.05
2022-11-28T20:46:35.920Z,5.09
2022-11-28T20:49:07.465Z,5.05
2022-11-28T20:51:36.126Z,5.04
2022-11-28T20:54:05.472Z,5.03
2022-11-28T20:56:51.587Z,5.02
2022-11-28T20:59:22.706Z,5.01
2022-11-28T21:01:49.926Z,5.00
2022-11-28T21:04:18.764Z,4.98
2022-11-28T21:06:47.684Z,4.99
2022-11-28T21:09:15.247Z,4.99
2022-11-28T21:11:56.822Z,5.05
2022-11-28T21:14:25.008Z,5.02
2022-11-28T21:16:52.112Z,5.03
2022-11-28T21:19:19.185Z,5.03
2022-11-28T21:21:46.184Z,5.03
2022-11-28T21:24:14.467Z,4.98
2022-11-28T21:26:45.353Z,5.01
2022-11-28T21:29:17.272Z,5.02
2022-11-28T21:31:45.450Z,5.02
2022-11-28T21:34:17.837Z,5.03
2022-11-28T21:36:45.648Z,4.98
2022-11-28T21:39:15.808Z,4.95
2022-11-28T21:41:43.284Z,4.98
2022-11-28T21:44:10.394Z,5.00
2022-11-28T21:46:38.205Z,5.00
2022-11-28T21:49:05.866Z,5.00
2022-11-28T21:51:37.992Z,4.98
2022-11-28T21:54:06.019Z,4.96
2022-11-28T21:56:33.590Z,4.98
2022-11-28T21:59:00.866Z,4.95
2022-11-28T22:01:28.856Z,4.95
2022-11-28T22:04:02.163Z,4.98
2022-11-28T22:06:31.692Z,4.96
2022-11-28T22:09:03.229Z,4.95
2022-11-28T22:11:34.358Z,4.92
2022-11-28T22:14:01.604Z,4.87
2022-11-28T22:16:29.640Z,4.89
2022-11-28T22:19:00.071Z,4.88
2022-11-28T22:24:14.826Z,4.88
2022-11-28T22:26:43.893Z,4.86
2022-11-28T22:29:11.620Z,4.84
2022-11-28T22:31:38.983Z,4.82
2022-11-28T22:34:06.705Z,4.82
2022-11-28T22:36:34.562Z,4.79
2022-11-28T22:39:04.337Z,4.78
2022-11-28T22:41:31.913Z,4.79
2022-11-28T22:44:01.319Z,4.75
2022-11-28T22:46:31.349Z,4.74
2022-11-28T22:49:01.074Z,4.75
2022-11-28T22:51:29.375Z,4.74
2022-11-28T22:53:58.786Z,4.75
2022-11-28T22:56:28.804Z,4.76
2022-11-28T22:58:57.985Z,4.77
2022-11-28T23:01:28.771Z,4.71
2022-11-28T23:03:56.767Z,4.70
2022-11-28T23:06:26.664Z,4.71
2022-11-28T23:08:59.098Z,4.72
2022-11-28T23:11:30.504Z,4.69
2022-11-28T23:13:59.223Z,4.68
2022-11-28T23:16:30.309Z,4.69
2022-11-28T23:19:00.005Z,4.68
2022-11-28T23:21:30.826Z,4.67
2022-11-28T23:23:58.567Z,4.63
2022-11-28T23:26:28.965Z,4.61
2022-11-28T23:28:58.168Z,4.61
2022-11-28T23:31:29.461Z,4.61
2022-11-28T23:33:57.707Z,4.62
2022-11-28T23:36:27.046Z,4.62
2022-11-28T23:38:56.952Z,4.60
2022-11-28T23:41:24.903Z,4.62
2022-11-28T23:43:52.063Z,4.63
2022-11-28T23:46:20.565Z,4.63
2022-11-28T23:48:48.305Z,4.61
2022-11-28T23:51:17.391Z,4.60
2022-11-28T23:53:44.865Z,4.60
2022-11-28T23:56:16.727Z,4.60
2022-11-28T23:58:43.910Z,4.61
